ADDS METAR Data INFO
IDs: Format: Raw Decoded Include TAF

Data at: 1149 UTC 25 Jun 2018

KFWS 251115Z AUTO 31006KT 10SM BKN027 OVC032 27/21 A3006 RMK AO2 T02670210
KFWS 251055Z AUTO 27004KT 10SM SCT029 26/21 A3001 RMK AO2 T02600210
KFWS 251035Z AUTO 19009G16KT 10SM SCT033 26/21 A2995 RMK AO2 T02620208
KFWS 251015Z AUTO 18008G16KT 10SM SCT026 BKN035 27/21 A2993 RMK AO2 T02670211
KFWS 250955Z AUTO 18012G17KT 10SM OVC035 27/21 A2993 RMK AO2 T02670207
KFWS 250935Z AUTO 18011G19KT 10SM OVC033 27/21 A2991 RMK AO2 T02670206
KFWS 250915Z AUTO 18014G21KT 10SM BKN033 27/21 A2991 RMK AO2 T02670210
KFWS 250855Z AUTO 18015G24KT 10SM BKN028 BKN033 27/21 A2990 RMK AO2 T02700211
KFWS 250835Z AUTO 17013G22KT 10SM BKN025 OVC031 27/21 A2988 RMK AO2 T02680213
KFWS 250815Z AUTO 18013G20KT 10SM SCT025 27/22 A2987 RMK AO2 T02670216
KFWS 250755Z AUTO 17014G22KT 10SM SCT025 27/22 A2986 RMK AO2 T02680215
KFWS 250735Z AUTO 17017G22KT 10SM CLR 27/21 A2985 RMK AO2 T02700214
KFWS 250715Z AUTO 17015G26KT 10SM CLR 27/21 A2985 RMK AO2 T02720213
KFWS 250655Z AUTO 16016G24KT 10SM CLR 28/22 A2985 RMK AO2 T02750215
KFWS 250635Z AUTO 16012G22KT 10SM CLR 28/22 A2985 RMK AO2 T02770215
KFWS 250615Z AUTO 16012G21KT 10SM CLR 28/22 A2986 RMK AO2 T02790215
KFWS 250555Z AUTO 16014G23KT 10SM CLR 28/22 A2986 RMK AO2 T02820215 10359 20282 403760267
KFWS 250535Z AUTO 16014G25KT 10SM CLR 29/22 A2986 RMK AO2 T02870216
KFWS 250515Z AUTO 17020G24KT 10SM CLR 29/22 A2987 RMK AO2 T02890216
KFWS 250455Z AUTO 15016G21KT 10SM CLR 29/22 A2987 RMK AO2 T02920215
KFWS 250435Z AUTO 15015G22KT 10SM CLR 30/21 A2987 RMK AO2 T02960212
KFWS 250415Z AUTO 16012G20KT 10SM CLR 30/21 A2987 RMK AO2 T03000205
KFWS 250355Z AUTO 15013G19KT 10SM CLR 30/20 A2987 RMK AO2 T03020198
KFWS 250335Z AUTO 16012G17KT 10SM CLR 31/20 A2987 RMK AO2 T03060200
KFWS 250315Z AUTO 15013G18KT 7SM CLR 31/20 A2986 RMK AO2 T03100198
KFWS 250255Z AUTO 15014G19KT 10SM CLR 31/20 A2985 RMK AO2 T03110195
KFWS 250235Z AUTO 15009KT 10SM CLR 32/20 A2985 RMK AO2 T03160195
KFWS 250215Z AUTO 15010G17KT 10SM CLR 32/19 A2984 RMK AO2 T03160193
KFWS 250155Z AUTO 15011G18KT 10SM CLR 33/19 A2984 RMK AO2 T03260194
KFWS 250135Z AUTO 14009G15KT 10SM CLR 33/19 A2984 RMK AO2 T03300190
KFWS 250115Z AUTO 15012G18KT 10SM CLR 34/19 A2984 RMK AO2 T03360188
KFWS 250055Z AUTO 15010KT 10SM CLR 35/18 A2985 RMK AO2 T03450181
KFWS 250035Z AUTO 15010KT 10SM CLR 35/17 A2985 RMK AO2 T03450171
KFWS 250015Z AUTO 14012G16KT 10SM SCT070 36/18 A2984 RMK AO2 T03550175
KFWS 242355Z 14014G21KT 10SM SCT070 36/17 A2984
KFWS 242255Z 16014G20KT 10SM FEW050 37/18 A2982
KFWS 242154Z 15028G37KT 10SM SKC 37/18 A2978
KFWS 242046Z 14018G34KT 10SM SKC 37/18 A2979
KFWS 241950Z 14018G30KT 10SM SKC 37/18 A2980
KFWS 241849Z 14016G22KT 10SM SKC 37/19 A2984
KFWS 241745Z 15011G20KT 10SM SCT038 34/21 A2986
KFWS 241646Z 14012G19KT 10SM SCT035 33/21 A2988
KFWS 241547Z 16014G20KT 10SM BKN036 32/21 A2989
KFWS 241446Z 16010G20KT 10SM BKN031 30/21 A2988
KFWS 241350Z 16007KT 10SM BKN029 27/21 A2987
KFWS 241155Z 16009G18KT 10SM BKN027 27/21 A2981
KFWS 241115Z AUTO 19013G25KT 10SM SCT028 27/21 A2979 RMK AO2 T02670207
KFWS 241055Z AUTO 20014G22KT 10SM BKN028 27/21 A2978 RMK AO2 T02680208
KFWS 241035Z AUTO 22010G14KT 190V270 10SM BKN028 27/21 A2977 RMK AO2 T02700211
KFWS 241015Z AUTO 18021G28KT 10SM CLR 27/21 A2969 RMK AO2 T02700212
KFWS 240955Z AUTO 17017G29KT 10SM CLR 27/22 A2967 RMK AO2 T02720216
KFWS 240935Z AUTO 16017G30KT 10SM CLR 27/22 A2967 RMK AO2 T02720216
KFWS 240915Z AUTO 15016G29KT 10SM CLR 27/22 A2968 RMK AO2 T02730215
KFWS 240855Z AUTO 18024G40KT 10SM CLR 28/22 A2968 RMK AO2 T02770217
KFWS 240835Z AUTO 18020G25KT 10SM CLR 28/22 A2970 RMK AO2 T02770219
KFWS 240815Z AUTO 18016G22KT 10SM CLR 28/22 A2971 RMK AO2 T02770219
KFWS 240755Z AUTO 16018G24KT 10SM CLR 28/22 A2972 RMK AO2 T02770218
KFWS 240735Z AUTO 17014G24KT 10SM CLR 28/22 A2974 RMK AO2 T02800217
KFWS 240715Z AUTO 17019G24KT 10SM CLR 28/22 A2978 RMK AO2 LTG DSNT S T02820217
KFWS 240655Z AUTO 16011G21KT 10SM VCTS SCT110 29/22 A2981 RMK AO2 LTG DSNT N S AND SW T02870218
KFWS 240635Z AUTO 16011G19KT 10SM TS BKN110 29/22 A2983 RMK AO2 LTG DSNT ALQS T02870216
KFWS 240615Z AUTO 16012G20KT 10SM VCTS SCT110 29/22 A2982 RMK AO2 LTG DSNT S THRU NW T02900215
KFWS 240555Z AUTO 17011G19KT 10SM VCTS SCT110 29/22 A2983 RMK AO2 LTG DSNT SW THRU NW T02920216 10352 20291 403750259
KFWS 240535Z AUTO 18011G18KT 10SM VCTS CLR 29/22 A2984 RMK AO2 LTG DSNT SW THRU NW T02920215
KFWS 240515Z AUTO 17009G19KT 10SM CLR 30/22 A2984 RMK AO2 LTG DSNT SW AND W T02950215
KFWS 240455Z AUTO 16016G19KT 10SM CLR 30/21 A2982 RMK AO2 T02970213
KFWS 240435Z AUTO 15010G18KT 10SM CLR 30/21 A2980 RMK AO2 T02980211
KFWS 240415Z AUTO 15012G16KT 10SM CLR 30/21 A2980 RMK AO2 T03010210
KFWS 240355Z AUTO 15013G20KT 10SM CLR 31/21 A2979 RMK AO2 T03050210
KFWS 240335Z AUTO 15011G20KT 10SM CLR 31/21 A2977 RMK AO2 T03060211
KFWS 240315Z AUTO 15013G18KT 7SM CLR 31/21 A2975 RMK AO2 T03100208
KFWS 240255Z AUTO 14010G16KT 7SM CLR 31/20 A2975 RMK AO2 T03110202
KFWS 240235Z AUTO 14009G14KT 10SM CLR 31/20 A2975 RMK AO2 T03130201
KFWS 240215Z AUTO 14009G14KT 10SM CLR 32/20 A2975 RMK AO2 T03170196
KFWS 240155Z AUTO 15008KT 10SM CLR 33/19 A2974 RMK AO2 T03260192
KFWS 240135Z AUTO 15007KT 10SM CLR 33/19 A2974 RMK AO2 T03270187
KFWS 240115Z AUTO 15008G16KT 10SM CLR 33/19 A2974 RMK AO2 T03310187
KFWS 240055Z AUTO 16008G15KT 10SM CLR 34/19 A2974 RMK AO2 T03380185
KFWS 240035Z AUTO 15009KT 10SM CLR 35/18 A2974 RMK AO2 T03450183
KFWS 240015Z AUTO 15006G18KT 10SM CLR 35/19 A2974 RMK AO2 T03500185
KFWS 232355Z 13014G21KT 10SM FEW080 35/18 A2973